Time;durP1;ratioP1;P1;durP2;ratioP2;P2;SDS_P1;SDS_P2;PMS_P1;PMS_P2;Temp;Humidity;BMP_temperature;BMP_pressure;BME280_temperature;BME280_humidity;BME280_pressure;Samples;Min_cycle;Max_cycle;Signal;HPM_P1;HPM_P2
2022/06/24 00:01:07;;;;;;;6.57;2.10;;;;;;;;;;4934619;29;20444;-66
2022/06/24 00:03:33;;;;;;;3.80;1.67;;;;;;;;;;4934054;29;20443;-67
2022/06/24 00:05:59;;;;;;;5.27;1.27;;;;;;;;;;4933316;29;20582;-66
2022/06/24 00:08:26;;;;;;;19.53;2.10;;;;;;;;;;4932802;29;20515;-66
2022/06/24 00:10:52;;;;;;;12.57;1.20;;;;;;;;;;4935076;29;20616;-66
2022/06/24 00:13:18;;;;;;;6.93;1.23;;;;;;;;;;4933960;29;20510;-66
2022/06/24 00:15:43;;;;;;;4.53;1.50;;;;;;;;;;4935015;29;21477;-66
2022/06/24 00:18:13;;;;;;;4.33;2.50;;;;;;;;;;4934218;29;20235;-67
2022/06/24 00:20:43;;;;;;;6.13;1.47;;;;;;;;;;4934734;29;20184;-66
2022/06/24 00:23:09;;;;;;;1.30;1.20;;;;;;;;;;4934212;29;20882;-66
2022/06/24 00:25:38;;;;;;;4.70;1.40;;;;;;;;;;4933657;29;20546;-66
2022/06/24 00:28:08;;;;;;;1.67;1.50;;;;;;;;;;4933508;29;20451;-66
2022/06/24 00:30:37;;;;;;;8.53;2.03;;;;;;;;;;4933167;29;20427;-66
2022/06/24 00:33:11;;;;;;;1.87;1.43;;;;;;;;;;4933905;29;20526;-66
2022/06/24 00:35:42;;;;;;;3.90;2.00;;;;;;;;;;4934553;29;20857;-65
2022/06/24 00:38:40;;;;;;;11.60;2.43;;;;;;;;;;4934023;29;20427;-66
2022/06/24 00:41:07;;;;;;;3.20;1.80;;;;;;;;;;4910626;29;20511;-66
2022/06/24 00:43:37;;;;;;;2.37;1.73;;;;;;;;;;4933458;29;20447;-66
2022/06/24 00:46:06;;;;;;;7.87;1.50;;;;;;;;;;4933915;29;20495;-66
2022/06/24 00:48:33;;;;;;;2.10;1.97;;;;;;;;;;4933632;29;21114;-66
2022/06/24 00:50:59;;;;;;;1.73;1.63;;;;;;;;;;4934037;29;20441;-66
2022/06/24 00:53:25;;;;;;;5.50;1.53;;;;;;;;;;4933796;29;20534;-66
2022/06/24 00:55:52;;;;;;;4.90;2.50;;;;;;;;;;4933570;29;20498;-66
2022/06/24 00:58:18;;;;;;;3.80;1.73;;;;;;;;;;4932049;29;20924;-66
2022/06/24 01:00:45;;;;;;;6.97;1.90;;;;;;;;;;4933477;29;20475;-66
2022/06/24 01:03:14;;;;;;;5.90;2.27;;;;;;;;;;4933517;29;20971;-66
2022/06/24 01:05:40;;;;;;;11.00;3.30;;;;;;;;;;4933431;29;20960;-65
2022/06/24 01:08:12;;;;;;;1.70;1.60;;;;;;;;;;4931752;29;20920;-65
2022/06/24 01:10:38;;;;;;;1.90;1.80;;;;;;;;;;4933268;29;20583;-65
2022/06/24 01:13:09;;;;;;;4.70;1.73;;;;;;;;;;4932423;29;20439;-65
2022/06/24 01:15:35;;;;;;;4.67;1.87;;;;;;;;;;4933441;29;20474;-65
2022/06/24 01:18:01;;;;;;;10.13;1.40;;;;;;;;;;4931705;29;20442;-65
2022/06/24 01:20:27;;;;;;;1.93;1.70;;;;;;;;;;4932880;29;20931;-65
2022/06/24 01:22:53;;;;;;;5.20;2.40;;;;;;;;;;4933623;29;20435;-66
2022/06/24 01:25:19;;;;;;;3.37;2.00;;;;;;;;;;4932732;29;20447;-65
2022/06/24 01:27:45;;;;;;;3.53;1.80;;;;;;;;;;4932275;29;20455;-65
2022/06/24 01:30:11;;;;;;;15.33;4.00;;;;;;;;;;4932407;29;20950;-65
2022/06/24 01:32:37;;;;;;;1.70;1.60;;;;;;;;;;4932628;29;20447;-65
2022/06/24 01:35:03;;;;;;;2.10;2.00;;;;;;;;;;4933121;29;20450;-65
2022/06/24 01:37:29;;;;;;;5.13;2.00;;;;;;;;;;4932445;29;20443;-65
2022/06/24 01:39:55;;;;;;;2.13;1.77;;;;;;;;;;4929781;29;20516;-65
2022/06/24 01:42:21;;;;;;;1.80;1.80;;;;;;;;;;4932700;29;20796;-65
2022/06/24 01:44:47;;;;;;;12.00;1.97;;;;;;;;;;4932836;29;20546;-65
2022/06/24 01:47:13;;;;;;;3.60;1.73;;;;;;;;;;4932682;29;20535;-65
2022/06/24 01:49:39;;;;;;;7.00;2.27;;;;;;;;;;4932703;29;20443;-65
2022/06/24 01:52:05;;;;;;;6.40;2.20;;;;;;;;;;4932718;29;20199;-65
2022/06/24 01:54:31;;;;;;;2.50;2.30;;;;;;;;;;4931956;29;20523;-65
2022/06/24 01:56:57;;;;;;;3.20;2.20;;;;;;;;;;4932556;29;20419;-65
2022/06/24 01:59:23;;;;;;;2.90;2.20;;;;;;;;;;4931528;29;20440;-65
2022/06/24 02:01:49;;;;;;;2.87;2.10;;;;;;;;;;4932291;29;20432;-65
2022/06/24 02:04:15;;;;;;;12.53;2.13;;;;;;;;;;4932592;29;20516;-65
2022/06/24 02:06:41;;;;;;;4.67;2.40;;;;;;;;;;4931492;29;20493;-65
2022/06/24 02:09:07;;;;;;;5.93;2.40;;;;;;;;;;4932058;29;20884;-65
2022/06/24 02:14:19;;;;;;;6.57;2.50;;;;;;;;;;4932400;29;20515;-65
2022/06/24 02:16:46;;;;;;;3.30;2.27;;;;;;;;;;4930971;29;20431;-65
2022/06/24 02:19:12;;;;;;;8.10;2.33;;;;;;;;;;4932539;29;20428;-66
2022/06/24 02:21:38;;;;;;;4.00;2.47;;;;;;;;;;4932205;29;20479;-65
2022/06/24 02:24:04;;;;;;;5.20;2.50;;;;;;;;;;4932135;29;20931;-65
2022/06/24 02:26:31;;;;;;;5.10;2.67;;;;;;;;;;4931266;29;20490;-65
2022/06/24 02:28:57;;;;;;;10.40;2.90;;;;;;;;;;4930507;29;20432;-65
2022/06/24 02:31:23;;;;;;;11.17;2.77;;;;;;;;;;4931915;29;20815;-65
2022/06/24 02:33:49;;;;;;;2.93;2.73;;;;;;;;;;4932194;29;20443;-66
2022/06/24 02:36:15;;;;;;;2.83;2.60;;;;;;;;;;4932124;29;20824;-65
2022/06/24 02:38:41;;;;;;;8.90;2.60;;;;;;;;;;4932465;29;20508;-65
2022/06/24 02:41:07;;;;;;;3.67;2.70;;;;;;;;;;4932143;29;20550;-65
2022/06/24 02:43:34;;;;;;;5.70;2.60;;;;;;;;;;4931768;29;20420;-65
2022/06/24 02:46:01;;;;;;;10.07;2.67;;;;;;;;;;4931885;29;21014;-65
2022/06/24 02:48:28;;;;;;;7.43;3.00;;;;;;;;;;4931993;29;20439;-65
2022/06/24 02:50:55;;;;;;;3.50;2.30;;;;;;;;;;4932008;29;20513;-65
2022/06/24 02:53:21;;;;;;;2.50;2.30;;;;;;;;;;4932093;29;20439;-65
2022/06/24 02:55:49;;;;;;;3.17;2.90;;;;;;;;;;4930059;29;20802;-65
2022/06/24 02:58:16;;;;;;;5.30;2.57;;;;;;;;;;4930196;29;20811;-65
2022/06/24 03:00:42;;;;;;;4.60;2.60;;;;;;;;;;4931918;29;20451;-65
2022/06/24 03:03:12;;;;;;;4.20;2.20;;;;;;;;;;4931915;29;20448;-65
2022/06/24 03:05:39;;;;;;;13.00;2.40;;;;;;;;;;4930951;29;20479;-65
2022/06/24 03:08:05;;;;;;;8.23;2.90;;;;;;;;;;4930190;29;20451;-65
2022/06/24 03:10:32;;;;;;;3.73;2.50;;;;;;;;;;4931641;29;20467;-65
2022/06/24 03:12:58;;;;;;;3.33;2.33;;;;;;;;;;4931845;29;20906;-65
2022/06/24 03:15:24;;;;;;;3.73;2.23;;;;;;;;;;4931674;29;20535;-65
2022/06/24 03:17:50;;;;;;;4.40;2.10;;;;;;;;;;4930951;29;21159;-65
2022/06/24 03:20:16;;;;;;;6.80;2.30;;;;;;;;;;4931622;29;20431;-66
2022/06/24 03:22:42;;;;;;;9.33;4.07;;;;;;;;;;4931674;29;20437;-65
2022/06/24 03:25:08;;;;;;;10.17;2.30;;;;;;;;;;4930776;29;20462;-65
2022/06/24 03:27:35;;;;;;;4.20;1.80;;;;;;;;;;4930616;29;20483;-65
2022/06/24 03:30:01;;;;;;;6.60;1.63;;;;;;;;;;4931455;29;20446;-65
2022/06/24 03:32:27;;;;;;;4.93;1.80;;;;;;;;;;4931211;29;20999;-65
2022/06/24 03:34:53;;;;;;;7.00;1.80;;;;;;;;;;4931662;29;20455;-67
2022/06/24 03:37:19;;;;;;;8.97;1.67;;;;;;;;;;4930625;29;20964;-65
2022/06/24 03:39:45;;;;;;;5.47;1.47;;;;;;;;;;4931140;29;20431;-65
2022/06/24 03:42:11;;;;;;;6.20;1.73;;;;;;;;;;4934514;29;20454;-65
2022/06/24 03:44:37;;;;;;;7.10;2.07;;;;;;;;;;4933376;29;20443;-65
2022/06/24 03:47:03;;;;;;;3.80;1.90;;;;;;;;;;4934621;29;21025;-66
2022/06/24 03:49:29;;;;;;;5.33;1.83;;;;;;;;;;4934654;29;20432;-65
2022/06/24 03:51:56;;;;;;;8.53;1.70;;;;;;;;;;4934338;29;20436;-66
2022/06/24 03:54:22;;;;;;;2.40;1.43;;;;;;;;;;4933013;29;20448;-65
2022/06/24 03:56:49;;;;;;;2.33;1.50;;;;;;;;;;4934125;29;20455;-65
2022/06/24 03:59:15;;;;;;;6.73;1.80;;;;;;;;;;4933880;29;20515;-67
2022/06/24 04:01:41;;;;;;;4.77;1.70;;;;;;;;;;4934662;29;20822;-66
2022/06/24 04:04:07;;;;;;;8.70;1.70;;;;;;;;;;4934608;29;20584;-65
2022/06/24 04:06:33;;;;;;;12.13;2.17;;;;;;;;;;4934239;29;20935;-65
2022/06/24 04:08:59;;;;;;;2.63;2.30;;;;;;;;;;4933077;29;20562;-65
2022/06/24 04:11:25;;;;;;;12.03;3.23;;;;;;;;;;4933419;29;20447;-65
2022/06/24 04:13:51;;;;;;;7.10;2.60;;;;;;;;;;4934485;29;20927;-65
2022/06/24 04:16:17;;;;;;;1.73;1.63;;;;;;;;;;4934232;29;20424;-65
2022/06/24 04:18:43;;;;;;;6.40;2.60;;;;;;;;;;4934635;29;20442;-65
2022/06/24 04:21:12;;;;;;;9.73;1.53;;;;;;;;;;4933514;29;20443;-66
2022/06/24 04:23:39;;;;;;;1.93;1.80;;;;;;;;;;4934352;29;20458;-70
2022/06/24 04:26:05;;;;;;;4.90;2.13;;;;;;;;;;4933147;29;20532;-68
2022/06/24 04:28:31;;;;;;;2.97;1.77;;;;;;;;;;4934247;29;20443;-68
2022/06/24 04:30:57;;;;;;;13.20;2.00;;;;;;;;;;4932477;29;20495;-67
2022/06/24 04:33:23;;;;;;;6.67;2.60;;;;;;;;;;4933769;29;20443;-68
2022/06/24 04:35:49;;;;;;;5.10;1.93;;;;;;;;;;4934576;29;20194;-68
2022/06/24 04:38:15;;;;;;;4.30;2.03;;;;;;;;;;4933760;29;20444;-69
2022/06/24 04:40:41;;;;;;;7.33;1.70;;;;;;;;;;4933344;29;20486;-68
2022/06/24 04:43:10;;;;;;;5.13;1.50;;;;;;;;;;4931055;29;20459;-68
2022/06/24 04:45:36;;;;;;;5.47;1.63;;;;;;;;;;4933731;29;20482;-67
2022/06/24 04:48:02;;;;;;;2.23;1.90;;;;;;;;;;4933849;29;20452;-72
2022/06/24 04:50:28;;;;;;;7.20;2.00;;;;;;;;;;4932633;29;20432;-72
2022/06/24 04:52:54;;;;;;;12.30;1.60;;;;;;;;;;4932531;29;20443;-70
2022/06/24 04:55:20;;;;;;;5.17;2.17;;;;;;;;;;4933686;29;20431;-73
2022/06/24 04:57:47;;;;;;;6.70;1.90;;;;;;;;;;4932303;29;20486;-73
2022/06/24 05:00:13;;;;;;;9.73;4.20;;;;;;;;;;4933107;29;20447;-72
2022/06/24 05:02:41;;;;;;;5.40;1.43;;;;;;;;;;4932993;29;20442;-67
2022/06/24 05:05:07;;;;;;;3.00;1.60;;;;;;;;;;4933469;29;20459;-68
2022/06/24 05:07:33;;;;;;;3.50;1.87;;;;;;;;;;4933444;29;20491;-71
2022/06/24 05:09:59;;;;;;;2.43;1.00;;;;;;;;;;4933863;29;20482;-71
2022/06/24 05:12:25;;;;;;;3.43;2.03;;;;;;;;;;4932730;29;20204;-71
2022/06/24 05:14:51;;;;;;;8.13;1.63;;;;;;;;;;4933446;29;20439;-71
2022/06/24 05:17:17;;;;;;;3.40;1.83;;;;;;;;;;4933027;29;20447;-69
2022/06/24 05:19:43;;;;;;;6.57;2.27;;;;;;;;;;4933473;29;20519;-70
2022/06/24 05:22:09;;;;;;;7.20;2.00;;;;;;;;;;4933426;29;20515;-70
2022/06/24 05:24:35;;;;;;;4.53;1.60;;;;;;;;;;4933177;29;20431;-71
2022/06/24 05:27:01;;;;;;;4.73;1.90;;;;;;;;;;4931650;29;20857;-72
2022/06/24 05:29:27;;;;;;;10.27;3.80;;;;;;;;;;4932543;29;20947;-71
2022/06/24 05:31:53;;;;;;;1.77;1.57;;;;;;;;;;4933363;29;20434;-70
2022/06/24 05:34:19;;;;;;;2.00;1.43;;;;;;;;;;4931468;29;20227;-67
2022/06/24 05:36:45;;;;;;;6.77;1.80;;;;;;;;;;4932146;29;20443;-66
2022/06/24 05:39:11;;;;;;;5.63;1.80;;;;;;;;;;4932574;29;20419;-67
2022/06/24 05:41:38;;;;;;;5.23;2.07;;;;;;;;;;4929987;29;20446;-66
2022/06/24 05:44:04;;;;;;;2.40;1.83;;;;;;;;;;4933015;29;20804;-67
2022/06/24 05:46:30;;;;;;;1.63;1.23;;;;;;;;;;4932357;29;20999;-66
2022/06/24 05:48:57;;;;;;;2.83;1.67;;;;;;;;;;4933236;29;20479;-66
2022/06/24 05:51:23;;;;;;;1.80;1.60;;;;;;;;;;4932792;29;20420;-68
2022/06/24 05:56:34;;;;;;;3.80;1.30;;;;;;;;;;4929431;29;20434;-66
2022/06/24 05:59:00;;;;;;;1.77;1.30;;;;;;;;;;4976889;23;20487;-66
2022/06/24 06:01:26;;;;;;;2.00;1.20;;;;;;;;;;4931685;29;20526;-65
2022/06/24 06:03:52;;;;;;;10.10;2.10;;;;;;;;;;4929551;29;20454;-64
2022/06/24 06:06:18;;;;;;;6.47;1.30;;;;;;;;;;4931272;29;20495;-64
2022/06/24 06:08:44;;;;;;;5.17;1.30;;;;;;;;;;4931338;29;20478;-65
2022/06/24 06:11:11;;;;;;;3.60;2.30;;;;;;;;;;4930862;29;21872;-65
2022/06/24 06:13:38;;;;;;;5.17;1.67;;;;;;;;;;4930949;29;20804;-65
2022/06/24 06:16:04;;;;;;;3.87;1.10;;;;;;;;;;4931244;29;20446;-64
2022/06/24 06:18:30;;;;;;;3.37;1.30;;;;;;;;;;4930662;29;20447;-64
2022/06/24 06:21:06;;;;;;;3.70;1.60;;;;;;;;;;4931730;29;20443;-64
2022/06/24 06:23:32;;;;;;;9.20;1.47;;;;;;;;;;4930615;29;20239;-64
2022/06/24 06:25:59;;;;;;;3.73;1.30;;;;;;;;;;4931334;29;20883;-64
2022/06/24 06:28:25;;;;;;;1.47;1.00;;;;;;;;;;4930273;29;20535;-65
2022/06/24 06:30:51;;;;;;;11.00;1.50;;;;;;;;;;4931249;29;20486;-65
2022/06/24 06:33:18;;;;;;;2.03;1.93;;;;;;;;;;4931680;29;20439;-65
2022/06/24 06:35:44;;;;;;;2.93;1.10;;;;;;;;;;4932061;29;20432;-65
2022/06/24 06:38:10;;;;;;;0.90;0.87;;;;;;;;;;4928601;29;20463;-64
2022/06/24 06:40:37;;;;;;;4.87;1.17;;;;;;;;;;4930232;29;20446;-64
2022/06/24 06:43:05;;;;;;;2.58;1.23;;;;;;;;;;4927568;29;20537;-65
2022/06/24 06:45:31;;;;;;;4.20;2.00;;;;;;;;;;4929061;29;20270;-64
2022/06/24 06:47:57;;;;;;;3.90;1.47;;;;;;;;;;4929478;29;20456;-64
2022/06/24 06:50:23;;;;;;;1.70;1.53;;;;;;;;;;4929272;29;20439;-65
2022/06/24 06:52:49;;;;;;;3.80;1.13;;;;;;;;;;4931779;29;20191;-65
2022/06/24 06:55:15;;;;;;;4.00;1.27;;;;;;;;;;4930355;29;20535;-64
2022/06/24 06:57:41;;;;;;;9.87;1.10;;;;;;;;;;4931231;29;20443;-65
2022/06/24 07:00:09;;;;;;;1.50;1.23;;;;;;;;;;4931887;29;20474;-65
2022/06/24 07:02:35;;;;;;;2.93;1.30;;;;;;;;;;4932271;29;20442;-64
2022/06/24 07:05:01;;;;;;;1.23;1.20;;;;;;;;;;4930413;29;20435;-64
2022/06/24 07:07:27;;;;;;;4.40;1.43;;;;;;;;;;4926196;29;20491;-64
2022/06/24 07:09:54;;;;;;;1.87;1.20;;;;;;;;;;4931025;29;20960;-64
2022/06/24 07:12:20;;;;;;;4.57;1.33;;;;;;;;;;4925508;29;20444;-64
2022/06/24 07:14:46;;;;;;;2.43;1.80;;;;;;;;;;4930091;29;20473;-64
2022/06/24 07:17:12;;;;;;;8.27;1.33;;;;;;;;;;4931533;29;20920;-65
2022/06/24 07:19:38;;;;;;;1.87;1.70;;;;;;;;;;4933582;29;20490;-64
2022/06/24 07:22:04;;;;;;;1.47;1.40;;;;;;;;;;4935167;29;20942;-65
2022/06/24 07:24:30;;;;;;;2.40;1.83;;;;;;;;;;4935321;29;20423;-64
2022/06/24 07:26:56;;;;;;;4.40;1.20;;;;;;;;;;4933671;29;20971;-64
2022/06/24 07:29:22;;;;;;;4.03;1.87;;;;;;;;;;4935480;29;20419;-65
2022/06/24 07:31:49;;;;;;;1.83;1.40;;;;;;;;;;4933797;29;20446;-65
2022/06/24 07:34:15;;;;;;;2.80;1.50;;;;;;;;;;4935376;29;20439;-64
2022/06/24 07:36:42;;;;;;;4.60;1.73;;;;;;;;;;4933021;29;20436;-65
2022/06/24 07:39:08;;;;;;;4.83;1.57;;;;;;;;;;4935429;29;20447;-65
2022/06/24 07:41:34;;;;;;;3.80;1.87;;;;;;;;;;4935036;29;20431;-65
2022/06/24 07:44:00;;;;;;;1.63;1.53;;;;;;;;;;4935071;29;21793;-65
2022/06/24 07:46:26;;;;;;;5.40;2.63;;;;;;;;;;4934067;29;20902;-64
2022/06/24 07:48:52;;;;;;;15.27;2.13;;;;;;;;;;4933382;29;20434;-65
2022/06/24 07:51:19;;;;;;;2.00;1.37;;;;;;;;;;4935121;29;20436;-64
2022/06/24 07:53:46;;;;;;;1.50;1.40;;;;;;;;;;4933637;29;20435;-64
2022/06/24 07:58:57;;;;;;;1.73;1.63;;;;;;;;;;4933005;29;20864;-64
2022/06/24 08:01:23;;;;;;;3.17;1.47;;;;;;;;;;4932491;29;20439;-65
2022/06/24 08:03:49;;;;;;;1.20;1.20;;;;;;;;;;4932622;29;20435;-64
2022/06/24 08:06:15;;;;;;;4.80;1.23;;;;;;;;;;4934364;29;21020;-64
2022/06/24 08:08:41;;;;;;;2.53;1.40;;;;;;;;;;4933654;29;20948;-64
2022/06/24 08:11:07;;;;;;;5.83;1.17;;;;;;;;;;4933797;29;20443;-64
2022/06/24 08:13:33;;;;;;;8.03;1.87;;;;;;;;;;4933709;29;20480;-64
2022/06/24 08:16:00;;;;;;;1.67;1.57;;;;;;;;;;4932857;29;20839;-64
2022/06/24 08:18:26;;;;;;;4.53;1.70;;;;;;;;;;4933620;29;20443;-64
2022/06/24 08:20:52;;;;;;;2.60;1.13;;;;;;;;;;4933126;29;20460;-64
2022/06/24 08:23:18;;;;;;;3.17;1.20;;;;;;;;;;4933497;29;20467;-65
2022/06/24 08:25:44;;;;;;;3.23;1.40;;;;;;;;;;4934037;29;20196;-64
2022/06/24 08:28:10;;;;;;;4.20;1.13;;;;;;;;;;4933070;29;20480;-65
2022/06/24 08:30:36;;;;;;;2.43;2.10;;;;;;;;;;4931936;29;20188;-65
2022/06/24 08:33:02;;;;;;;1.27;1.20;;;;;;;;;;4932837;29;20458;-65
2022/06/24 08:35:28;;;;;;;5.50;1.30;;;;;;;;;;4934190;29;20445;-65
2022/06/24 08:37:55;;;;;;;3.10;1.70;;;;;;;;;;4932677;29;20932;-64
2022/06/24 08:40:21;;;;;;;2.07;1.97;;;;;;;;;;4933536;29;20432;-65
2022/06/24 08:42:52;;;;;;;7.87;2.20;;;;;;;;;;4933389;29;20515;-65
2022/06/24 08:45:18;;;;;;;3.73;2.13;;;;;;;;;;4934406;29;20460;-65
2022/06/24 08:47:45;;;;;;;9.27;3.40;;;;;;;;;;4931295;29;20483;-65
2022/06/24 08:50:12;;;;;;;2.40;1.40;;;;;;;;;;4934219;29;20431;-65
2022/06/24 08:52:40;;;;;;;1.50;1.40;;;;;;;;;;4934237;29;20491;-65
2022/06/24 08:55:07;;;;;;;4.37;1.90;;;;;;;;;;4933246;29;20507;-65
2022/06/24 08:57:33;;;;;;;4.90;1.23;;;;;;;;;;4930923;29;20470;-64
2022/06/24 08:59:59;;;;;;;1.60;1.50;;;;;;;;;;4931461;29;20979;-65
2022/06/24 09:02:25;;;;;;;5.13;1.00;;;;;;;;;;4933767;29;20664;-66
2022/06/24 09:04:51;;;;;;;3.73;1.23;;;;;;;;;;4933849;29;20466;-64
2022/06/24 09:07:23;;;;;;;6.33;1.83;;;;;;;;;;4931917;29;20566;-65
2022/06/24 09:10:04;;;;;;;1.73;1.67;;;;;;;;;;4932293;29;20447;-66
2022/06/24 09:12:40;;;;;;;0.80;0.80;;;;;;;;;;4930412;29;20446;-74
2022/06/24 09:15:07;;;;;;;0.87;0.87;;;;;;;;;;4932145;29;20443;-65
2022/06/24 09:17:33;;;;;;;0.90;0.90;;;;;;;;;;4932815;29;20448;-64
2022/06/24 09:20:18;;;;;;;2.87;1.37;;;;;;;;;;4933853;29;20432;-65
2022/06/24 09:22:44;;;;;;;3.20;1.60;;;;;;;;;;4931655;29;20431;-64
2022/06/24 09:25:10;;;;;;;1.07;1.03;;;;;;;;;;4932533;29;20443;-64
2022/06/24 09:27:42;;;;;;;3.07;1.17;;;;;;;;;;4930101;29;20499;-64
2022/06/24 09:30:08;;;;;;;1.33;1.33;;;;;;;;;;4933685;29;20423;-64
2022/06/24 09:32:34;;;;;;;1.53;1.10;;;;;;;;;;4932869;29;20443;-65
2022/06/24 09:35:07;;;;;;;7.00;1.40;;;;;;;;;;4930468;29;20495;-65
2022/06/24 09:37:37;;;;;;;6.43;1.20;;;;;;;;;;4930302;29;20206;-64
2022/06/24 09:40:16;;;;;;;3.90;1.33;;;;;;;;;;4933728;29;20483;-66
2022/06/24 09:42:42;;;;;;;14.97;1.60;;;;;;;;;;4933470;29;20430;-65
2022/06/24 09:45:08;;;;;;;2.83;0.90;;;;;;;;;;4932952;29;20444;-66
2022/06/24 09:47:41;;;;;;;1.70;1.60;;;;;;;;;;4930872;29;20880;-65
2022/06/24 09:50:07;;;;;;;5.53;1.47;;;;;;;;;;4932581;29;20945;-66
2022/06/24 09:52:33;;;;;;;1.80;0.70;;;;;;;;;;4931782;29;20443;-65
2022/06/24 09:55:01;;;;;;;1.60;1.07;;;;;;;;;;4933068;29;20434;-65
2022/06/24 09:57:28;;;;;;;1.70;1.17;;;;;;;;;;4931722;29;20436;-65
2022/06/24 10:02:39;;;;;;;5.80;1.23;;;;;;;;;;4932714;29;20795;-65
2022/06/24 10:05:07;;;;;;;3.20;1.67;;;;;;;;;;4932228;29;20538;-65
2022/06/24 10:07:35;;;;;;;0.93;0.93;;;;;;;;;;4931757;29;20487;-65
2022/06/24 10:10:05;;;;;;;1.60;0.83;;;;;;;;;;4927831;29;20944;-65
2022/06/24 10:12:36;;;;;;;2.80;2.70;;;;;;;;;;4929840;29;20447;-65
2022/06/24 10:15:02;;;;;;;1.93;0.90;;;;;;;;;;4929690;29;20453;-65
2022/06/24 10:17:28;;;;;;;1.30;1.30;;;;;;;;;;4930002;29;20471;-66
2022/06/24 10:19:55;;;;;;;1.30;1.30;;;;;;;;;;4929829;29;20466;-66
2022/06/24 10:22:57;;;;;;;2.80;2.60;;;;;;;;;;4931804;29;20439;-64
2022/06/24 10:25:43;;;;;;;3.70;1.07;;;;;;;;;;4872753;29;20889;-65
2022/06/24 10:28:09;;;;;;;2.10;1.10;;;;;;;;;;4927354;29;20483;-65
2022/06/24 10:30:35;;;;;;;2.50;1.10;;;;;;;;;;4927662;29;20440;-65
2022/06/24 10:33:20;;;;;;;1.13;1.13;;;;;;;;;;4930850;29;20439;-65
2022/06/24 10:35:55;;;;;;;4.07;1.53;;;;;;;;;;4930792;29;20530;-65
2022/06/24 10:38:22;;;;;;;3.50;1.00;;;;;;;;;;4930815;29;20443;-66
2022/06/24 10:40:49;;;;;;;0.87;0.87;;;;;;;;;;4932526;29;20519;-65
2022/06/24 10:43:32;;;;;;;3.60;2.40;;;;;;;;;;4932059;29;20436;-65
2022/06/24 10:46:13;;;;;;;3.37;1.37;;;;;;;;;;4930093;29;20475;-65
2022/06/24 10:48:48;;;;;;;0.77;0.77;;;;;;;;;;4929649;29;20436;-65
2022/06/24 10:51:15;;;;;;;0.93;0.93;;;;;;;;;;4934912;29;20435;-68
2022/06/24 10:54:00;;;;;;;1.37;1.00;;;;;;;;;;4936020;29;20419;-65
2022/06/24 10:56:45;;;;;;;2.30;0.67;;;;;;;;;;4935699;29;20424;-65
2022/06/24 10:59:12;;;;;;;0.70;0.70;;;;;;;;;;4934281;29;20554;-65
2022/06/24 11:01:45;;;;;;;1.23;1.13;;;;;;;;;;4933956;29;20811;-65
2022/06/24 11:04:12;;;;;;;1.50;1.50;;;;;;;;;;4935750;29;21016;-65
2022/06/24 11:06:39;;;;;;;1.80;1.43;;;;;;;;;;4933857;29;20491;-65
2022/06/24 11:09:08;;;;;;;2.03;1.20;;;;;;;;;;4935530;29;20519;-65
2022/06/24 11:11:35;;;;;;;2.07;1.20;;;;;;;;;;4933200;29;20447;-65
2022/06/24 11:14:22;;;;;;;0.80;0.80;;;;;;;;;;4935918;29;20499;-66
2022/06/24 11:16:49;;;;;;;5.90;1.27;;;;;;;;;;4934309;29;20474;-65
2022/06/24 11:19:15;;;;;;;1.80;0.90;;;;;;;;;;4935846;29;20440;-67
2022/06/24 11:21:51;;;;;;;2.33;1.00;;;;;;;;;;4935246;29;20511;-65
2022/06/24 11:24:20;;;;;;;2.77;1.30;;;;;;;;;;4933573;29;20439;-65
2022/06/24 11:27:05;;;;;;;0.70;0.70;;;;;;;;;;4934139;29;20573;-65
2022/06/24 11:29:48;;;;;;;2.83;0.90;;;;;;;;;;4934891;29;20432;-65
2022/06/24 11:32:14;;;;;;;3.73;1.63;;;;;;;;;;4933806;29;20435;-64
2022/06/24 11:34:40;;;;;;;0.63;0.63;;;;;;;;;;4932799;29;20974;-65
2022/06/24 11:37:06;;;;;;;1.37;1.10;;;;;;;;;;4933473;29;20786;-64
2022/06/24 11:39:32;;;;;;;2.93;1.63;;;;;;;;;;4933509;29;20448;-65
2022/06/24 11:41:58;;;;;;;4.80;1.27;;;;;;;;;;4934028;29;20491;-67
2022/06/24 11:44:38;;;;;;;12.30;1.23;;;;;;;;;;4934222;29;20463;-67
2022/06/24 11:47:05;;;;;;;1.67;1.40;;;;;;;;;;4933505;29;20530;-65
2022/06/24 11:49:32;;;;;;;7.00;1.30;;;;;;;;;;4932919;29;20437;-65
2022/06/24 11:51:58;;;;;;;2.30;1.20;;;;;;;;;;4933932;29;20432;-65
2022/06/24 11:54:28;;;;;;;1.17;1.17;;;;;;;;;;4933086;29;20455;-64
2022/06/24 11:56:54;;;;;;;1.60;1.47;;;;;;;;;;4931206;29;20486;-65
2022/06/24 11:59:21;;;;;;;4.83;2.27;;;;;;;;;;4934109;29;20482;-66
2022/06/24 12:01:47;;;;;;;2.87;1.07;;;;;;;;;;4931221;29;20796;-65
2022/06/24 12:04:14;;;;;;;1.27;1.20;;;;;;;;;;4933286;29;20451;-65
2022/06/24 12:06:41;;;;;;;2.20;1.57;;;;;;;;;;4933714;29;20538;-65
2022/06/24 12:09:08;;;;;;;3.77;1.70;;;;;;;;;;4933000;29;21173;-68
2022/06/24 12:11:42;;;;;;;1.03;1.03;;;;;;;;;;4932781;29;20870;-65
2022/06/24 12:14:09;;;;;;;1.93;1.77;;;;;;;;;;4933094;29;20444;-67
2022/06/24 12:16:53;;;;;;;1.27;1.17;;;;;;;;;;4934354;29;20586;-66
2022/06/24 12:19:19;;;;;;;7.40;1.93;;;;;;;;;;4934168;29;20883;-65
2022/06/24 12:21:45;;;;;;;6.07;2.10;;;;;;;;;;4931911;29;20439;-65
2022/06/24 12:24:21;;;;;;;4.00;1.37;;;;;;;;;;4934008;29;21496;-64
2022/06/24 12:26:47;;;;;;;1.40;1.30;;;;;;;;;;4931381;29;20471;-65
2022/06/24 12:29:13;;;;;;;2.70;1.30;;;;;;;;;;4931988;29;20447;-65
2022/06/24 12:31:50;;;;;;;2.40;1.27;;;;;;;;;;4933159;29;20992;-67
2022/06/24 12:34:24;;;;;;;4.17;1.27;;;;;;;;;;4931080;29;20438;-66
2022/06/24 12:36:55;;;;;;;2.20;2.10;;;;;;;;;;4932715;29;20432;-65
2022/06/24 12:39:26;;;;;;;2.50;1.43;;;;;;;;;;4933682;29;20787;-67
2022/06/24 12:41:52;;;;;;;2.00;1.07;;;;;;;;;;4931369;29;20871;-65
2022/06/24 12:44:18;;;;;;;4.10;2.17;;;;;;;;;;4933233;29;20864;-65
2022/06/24 12:52:40;;;;;;;2.73;1.60;;;;;;;;;;4931315;29;20439;-65
2022/06/24 12:55:07;;;;;;;1.77;1.60;;;;;;;;;;4932825;29;20444;-65
2022/06/24 12:57:33;;;;;;;1.57;1.47;;;;;;;;;;4933491;29;20446;-66
2022/06/24 12:59:59;;;;;;;1.80;1.40;;;;;;;;;;4931590;29;20984;-66
2022/06/24 13:02:25;;;;;;;1.87;1.77;;;;;;;;;;4932300;29;20436;-65
2022/06/24 13:04:50;;;;;;;3.07;1.13;;;;;;;;;;4932954;29;20820;-65
2022/06/24 13:07:17;;;;;;;1.57;1.30;;;;;;;;;;4932902;29;20557;-65
2022/06/24 13:09:43;;;;;;;1.73;1.20;;;;;;;;;;4932824;29;20431;-66
2022/06/24 13:12:09;;;;;;;3.67;1.50;;;;;;;;;;4930936;29;20865;-65
2022/06/24 13:14:35;;;;;;;1.67;1.10;;;;;;;;;;4933457;29;20807;-65
2022/06/24 13:17:01;;;;;;;1.10;1.10;;;;;;;;;;4933107;29;20498;-65
2022/06/24 13:19:27;;;;;;;1.00;1.00;;;;;;;;;;4931523;29;20455;-65
2022/06/24 13:21:54;;;;;;;1.40;1.30;;;;;;;;;;4932037;29;20855;-65
2022/06/24 13:24:20;;;;;;;2.20;1.27;;;;;;;;;;4932135;29;20452;-65
2022/06/24 13:26:47;;;;;;;1.27;1.27;;;;;;;;;;4931878;29;20646;-66
2022/06/24 13:29:13;;;;;;;2.00;1.90;;;;;;;;;;4931034;29;20444;-65
2022/06/24 13:31:41;;;;;;;1.40;1.30;;;;;;;;;;4932603;29;20943;-64
2022/06/24 13:34:07;;;;;;;1.73;1.20;;;;;;;;;;4929123;29;20450;-65
2022/06/24 13:36:33;;;;;;;2.73;1.40;;;;;;;;;;4932300;29;20444;-65
2022/06/24 13:38:59;;;;;;;2.40;2.40;;;;;;;;;;4931078;29;20510;-65
2022/06/24 13:41:25;;;;;;;1.73;1.63;;;;;;;;;;4931286;29;20479;-65
2022/06/24 13:43:51;;;;;;;1.03;1.00;;;;;;;;;;4933076;29;20243;-65
2022/06/24 13:46:17;;;;;;;1.80;1.30;;;;;;;;;;4930550;29;21066;-65
2022/06/24 13:48:43;;;;;;;1.50;1.40;;;;;;;;;;4932190;29;20463;-65
2022/06/24 13:51:09;;;;;;;2.00;1.00;;;;;;;;;;4930925;29;20432;-65
2022/06/24 13:53:35;;;;;;;2.20;1.40;;;;;;;;;;4931683;29;20908;-65
2022/06/24 13:56:01;;;;;;;6.27;1.43;;;;;;;;;;4930964;29;20495;-65
2022/06/24 13:58:27;;;;;;;1.90;1.30;;;;;;;;;;4930460;29;20494;-66
2022/06/24 14:00:53;;;;;;;1.27;1.23;;;;;;;;;;4930909;29;20487;-66
2022/06/24 14:03:22;;;;;;;1.00;1.00;;;;;;;;;;4929697;29;21010;-66
2022/06/24 14:05:47;;;;;;;0.80;0.80;;;;;;;;;;4930354;29;20435;-65
2022/06/24 14:08:13;;;;;;;1.20;1.20;;;;;;;;;;4930299;29;20948;-65
2022/06/24 14:10:40;;;;;;;3.23;0.90;;;;;;;;;;4932284;29;20675;-65
2022/06/24 14:13:06;;;;;;;2.80;1.33;;;;;;;;;;4930939;29;20459;-65
2022/06/24 14:15:32;;;;;;;1.00;1.00;;;;;;;;;;4929298;29;20443;-65
2022/06/24 14:17:58;;;;;;;1.73;1.73;;;;;;;;;;4929781;29;20827;-65
2022/06/24 14:20:24;;;;;;;2.20;1.33;;;;;;;;;;4932072;29;20932;-65
2022/06/24 14:25:36;;;;;;;1.03;1.00;;;;;;;;;;4932553;29;20494;-66
2022/06/24 14:28:03;;;;;;;0.80;0.80;;;;;;;;;;4929818;29;20483;-65
2022/06/24 14:30:29;;;;;;;0.97;0.97;;;;;;;;;;4930711;29;20467;-66
2022/06/24 14:32:55;;;;;;;0.90;0.90;;;;;;;;;;4931838;29;20427;-65
2022/06/24 14:35:21;;;;;;;1.30;1.30;;;;;;;;;;4932258;29;20456;-66
2022/06/24 14:40:32;;;;;;;4.33;1.67;;;;;;;;;;4930832;29;20439;-65
2022/06/24 14:42:59;;;;;;;1.47;1.47;;;;;;;;;;4930396;29;20454;-65
2022/06/24 14:45:25;;;;;;;1.30;1.30;;;;;;;;;;4930114;29;20467;-66
2022/06/24 14:47:52;;;;;;;1.17;1.17;;;;;;;;;;4922658;29;21171;-65
2022/06/24 14:50:18;;;;;;;1.23;1.23;;;;;;;;;;4929722;29;20455;-65
2022/06/24 14:52:44;;;;;;;1.47;1.47;;;;;;;;;;4929658;29;20455;-65
2022/06/24 14:55:10;;;;;;;5.73;1.17;;;;;;;;;;4929767;29;20459;-65
2022/06/24 14:57:36;;;;;;;1.87;1.00;;;;;;;;;;4931230;29;20773;-67
2022/06/24 15:00:04;;;;;;;8.30;1.17;;;;;;;;;;4929427;29;20987;-65
2022/06/24 15:02:30;;;;;;;3.23;1.00;;;;;;;;;;4926977;29;20470;-65
2022/06/24 15:04:56;;;;;;;0.70;0.70;;;;;;;;;;4930311;29;20510;-65
2022/06/24 15:07:22;;;;;;;0.83;0.83;;;;;;;;;;4930342;29;20293;-65